Iron Mountain, MI

11:43 AM CST on February 25, 2017 (GMT -0600)
Breitung | | Change Station

Elev 1113 ft 45.80 °N, 88.08 °W | Updated 26 seconds ago

Light Snow
Light Snow
24.1 °F
Feels Like 15 °F
N
8.0
Wind Variable Wind from NW

Today
High -- | Low -- °F
--% Chance of Precip.
Yesterday
High -- | Low -- °F
Precip. -- in
Pressure 29.61 in
Visibility 5.0 miles
Clouds Overcast 3200 ft
Windchill 15 °F
Dew Point 14 °F
Humidity 65%
Rainfall 0.00 in
Snow Depth Not available.
6:37 AM 5:33 PM
Waning Crescent, 1% visible
SPECI KIMT 251718Z AUTO 31017G27KT 5SM -SN OVC032 M06/M12 A2961 RMK AO2 PK WND 31028/1659 P0000 T10611117
Pressure 29.61 in
Visibility 5.0 miles
Clouds Overcast 3200 ft
Windchill 15 °F
Dew Point 14 °F
Humidity 65%
Rainfall 0.00 in
Snow Depth Not available.
6:37 AM 5:33 PM
Waning Crescent, 1% visible
SPECI KIMT 251718Z AUTO 31017G27KT 5SM -SN OVC032 M06/M12 A2961 RMK AO2 PK WND 31028/1659 P0000 T10611117

Get Your Daily Forecast Email!

Thanks for signing up!

Be on the lookout for a verification email in your inbox.

You'll start receiving the daily forecast at 8 AM.

×

10-Day Weather Forecast

Almanac

Astronomy

Feb. 25, 2017 Rise Set
Actual Time
Civil Twilight
Nautical Twilight
Astronomical Twilight
Moon
Length of Visible Light
Length of Day
Tomorrow will be .
, % of the Moon is Illuminated

Today's Extremes

State Highs State Lows

Community

WunderPhotos

Upload Photos

1,962,540 photos uploaded!

WunderBlog® & News

Nearby

Air Quality

  Air Quality AQ Index Pollutant
Not available.

Snow Depth

Station Depth Elevation

Earthquake Activity

City Distance Mag. Time & Date
Minimum magnitude displayed is 2.5.

Coastal Water Temperatures

Place Temperature

Stations

Nearby Weather Stations

Station Location Temp. Windchill Dew Point Humidity Wind Precip. Elev Updated Type
                   

Watches & Warnings

There are currently no watches in effect.